Terminal Aerodrome Forecast
Issued by NWS

Home | Current Version | Previous Version | Text Only | Print | Product List | Glossary On
Versions: 1 2 3 4 5 6 7 8 9 10 11 12 13 14
000
FTUS45 KABQ 230537
TAFFMN
TAF
KFMN 230537Z 2306/2406 01008KT P6SM VCTS SCT120CB BKN150
      TEMPO 2306/2307 VRB20G35KT -SHRA BKN100
     FM230700 09008KT P6SM SCT150
     FM231900 28012G20KT P6SM SKC
     FM240000 02010G18KT P6SM SCT110=

USA.gov is the U.S. government's official web portal to all federal, state and local government web resources and services.